createdAt,value
2022-12-06T00:01:47.438Z,4.35
2022-12-06T00:04:16.276Z,4.64
2022-12-06T00:06:47.995Z,5.00
2022-12-06T00:09:30.848Z,4.99
2022-12-06T00:11:58.243Z,4.33
2022-12-06T00:14:26.349Z,4.88
2022-12-06T00:16:52.866Z,4.37
2022-12-06T00:19:21.812Z,4.40
2022-12-06T00:21:49.483Z,5.05
2022-12-06T00:24:18.789Z,5.19
2022-12-06T00:26:47.283Z,5.02
2022-12-06T00:29:17.781Z,4.52
2022-12-06T00:31:44.713Z,4.69
2022-12-06T00:34:11.413Z,4.82
2022-12-06T00:36:40.065Z,4.56
2022-12-06T00:39:12.243Z,4.70
2022-12-06T00:41:39.134Z,4.94
2022-12-06T00:44:05.875Z,4.43
2022-12-06T00:46:33.613Z,4.41
2022-12-06T00:49:01.327Z,5.13
2022-12-06T00:51:29.623Z,4.35
2022-12-06T00:53:56.365Z,4.73
2022-12-06T00:56:22.876Z,4.44
2022-12-06T00:58:49.358Z,4.76
2022-12-06T01:01:21.642Z,4.86
2022-12-06T01:03:52.026Z,4.57
2022-12-06T01:06:20.471Z,4.72
2022-12-06T01:08:46.955Z,4.13
2022-12-06T01:11:15.532Z,4.44
2022-12-06T01:13:43.294Z,4.60
2022-12-06T01:16:13.108Z,3.87
2022-12-06T01:18:40.529Z,4.74
2022-12-06T01:21:08.834Z,4.23
2022-12-06T01:23:36.170Z,4.14
2022-12-06T01:26:04.550Z,4.59
2022-12-06T01:28:31.136Z,5.00
2022-12-06T01:30:57.814Z,4.57
2022-12-06T01:33:24.349Z,4.63
2022-12-06T01:35:50.776Z,4.58
2022-12-06T01:38:17.234Z,4.99
2022-12-06T01:40:46.489Z,4.64
2022-12-06T01:43:31.640Z,4.47
2022-12-06T01:46:03.443Z,4.41
2022-12-06T01:48:29.941Z,4.87
2022-12-06T01:50:57.877Z,4.20
2022-12-06T01:53:25.776Z,4.05
2022-12-06T01:55:53.600Z,4.34
2022-12-06T01:58:25.019Z,4.56
2022-12-06T02:00:51.952Z,4.72
2022-12-06T02:03:24.007Z,4.04
2022-12-06T02:05:51.641Z,4.51
2022-12-06T02:08:20.807Z,4.34
2022-12-06T02:10:47.266Z,4.66
2022-12-06T02:13:14.344Z,3.91
2022-12-06T02:15:48.775Z,4.31
2022-12-06T02:18:23.635Z,4.99
2022-12-06T02:21:10.262Z,4.70
2022-12-06T02:23:43.483Z,4.66
2022-12-06T02:26:36.710Z,4.54
2022-12-06T02:29:37.988Z,4.21
2022-12-06T02:32:26.229Z,4.30
2022-12-06T02:35:19.364Z,4.87
2022-12-06T02:38:16.776Z,4.67
2022-12-06T02:40:54.433Z,4.83
2022-12-06T02:43:25.883Z,4.67
2022-12-06T02:45:56.923Z,4.61
2022-12-06T02:48:25.858Z,4.93
2022-12-06T02:51:00.001Z,4.60
2022-12-06T02:53:29.074Z,4.58
2022-12-06T02:55:57.119Z,4.82
2022-12-06T02:58:23.620Z,4.46
2022-12-06T03:00:56.619Z,4.78
2022-12-06T03:03:35.534Z,5.07
2022-12-06T03:06:02.082Z,4.67
2022-12-06T03:08:46.480Z,4.84
2022-12-06T03:11:13.787Z,4.47
2022-12-06T03:13:55.276Z,4.29
2022-12-06T03:16:28.199Z,4.81
2022-12-06T03:19:12.856Z,4.47
2022-12-06T03:22:06.523Z,4.13
2022-12-06T03:24:36.123Z,4.55
2022-12-06T03:27:09.357Z,4.02
2022-12-06T03:29:41.915Z,4.84
2022-12-06T03:32:09.728Z,4.65
2022-12-06T03:34:39.111Z,4.70
2022-12-06T03:37:09.269Z,4.22
2022-12-06T03:39:42.101Z,4.74
2022-12-06T03:42:09.620Z,4.03
2022-12-06T03:44:36.898Z,4.92
2022-12-06T03:47:11.150Z,4.74
2022-12-06T03:50:00.824Z,4.83
2022-12-06T03:52:29.451Z,3.95
2022-12-06T03:54:55.982Z,4.27
2022-12-06T03:57:22.437Z,4.50
2022-12-06T03:59:48.885Z,4.96
2022-12-06T04:02:15.386Z,4.56
2022-12-06T04:04:41.835Z,4.69
2022-12-06T04:07:10.286Z,4.52
2022-12-06T04:09:55.248Z,4.87
2022-12-06T04:12:41.583Z,4.29
2022-12-06T04:15:09.210Z,4.18
2022-12-06T04:17:57.146Z,4.78
2022-12-06T04:20:24.330Z,4.14
2022-12-06T04:23:05.525Z,4.52
2022-12-06T04:25:36.113Z,4.77
2022-12-06T04:28:22.356Z,4.70
2022-12-06T04:31:07.413Z,4.47
2022-12-06T04:33:52.492Z,4.14
2022-12-06T04:36:37.273Z,4.87
2022-12-06T04:39:03.941Z,3.69
2022-12-06T04:41:49.008Z,4.20
2022-12-06T04:44:15.697Z,4.72
2022-12-06T04:46:42.278Z,4.46
2022-12-06T04:49:08.853Z,4.45
2022-12-06T04:51:35.338Z,3.90
2022-12-06T04:54:02.083Z,4.50
2022-12-06T04:56:28.593Z,4.65
2022-12-06T04:58:55.080Z,4.92
2022-12-06T05:01:21.589Z,4.73
2022-12-06T05:03:48.251Z,4.27
2022-12-06T05:06:14.843Z,4.35
2022-12-06T05:08:41.416Z,4.57
2022-12-06T05:11:07.849Z,4.28
2022-12-06T05:13:34.370Z,4.10
2022-12-06T05:16:04.594Z,4.14
2022-12-06T05:18:33.686Z,4.10
2022-12-06T05:21:13.848Z,4.55
2022-12-06T05:23:41.125Z,4.13
2022-12-06T05:26:11.652Z,4.24
2022-12-06T05:28:38.323Z,3.95
2022-12-06T05:31:04.988Z,4.67
2022-12-06T05:33:31.721Z,3.88
2022-12-06T05:35:58.326Z,4.13
2022-12-06T05:38:24.799Z,4.58
2022-12-06T05:40:51.969Z,4.65
2022-12-06T05:43:18.382Z,4.58
2022-12-06T05:45:44.978Z,4.20
2022-12-06T05:48:11.493Z,4.07
2022-12-06T05:50:38.053Z,4.61
2022-12-06T05:53:04.457Z,4.44
2022-12-06T05:55:30.944Z,3.94
2022-12-06T05:57:57.387Z,4.07
2022-12-06T06:00:23.893Z,4.50
2022-12-06T06:02:50.554Z,3.80
2022-12-06T06:05:17.370Z,4.52
2022-12-06T06:07:43.950Z,3.65
2022-12-06T06:10:10.813Z,3.93
2022-12-06T06:12:37.344Z,3.76
2022-12-06T06:15:07.003Z,4.05
2022-12-06T06:17:34.886Z,4.66
2022-12-06T06:20:05.624Z,4.60
2022-12-06T06:22:37.285Z,4.00
2022-12-06T06:25:04.378Z,4.24
2022-12-06T06:27:39.620Z,4.20
2022-12-06T06:30:09.330Z,4.42
2022-12-06T06:32:36.081Z,4.85
2022-12-06T06:35:03.526Z,4.38
2022-12-06T06:37:29.986Z,4.16
2022-12-06T06:39:56.532Z,4.41
2022-12-06T06:42:22.937Z,3.85
2022-12-06T06:44:49.474Z,3.99
2022-12-06T06:47:15.956Z,4.18
2022-12-06T06:49:42.651Z,4.77
2022-12-06T06:52:09.164Z,4.08
2022-12-06T06:54:35.606Z,4.30
2022-12-06T06:57:02.972Z,4.24
2022-12-06T06:59:29.473Z,4.22
2022-12-06T07:01:56.141Z,3.92
2022-12-06T07:04:22.778Z,3.73
2022-12-06T07:06:49.242Z,4.29
2022-12-06T07:09:15.682Z,4.30
2022-12-06T07:11:42.300Z,3.73
2022-12-06T07:14:08.736Z,3.47
2022-12-06T07:16:35.296Z,4.42
2022-12-06T07:19:07.590Z,4.22
2022-12-06T07:21:35.533Z,3.98
2022-12-06T07:24:02.013Z,4.06
2022-12-06T07:26:29.067Z,4.73
2022-12-06T07:28:57.727Z,4.30
2022-12-06T07:31:27.937Z,4.58
2022-12-06T07:33:56.935Z,4.78
2022-12-06T07:36:24.986Z,4.45
2022-12-06T07:38:54.153Z,4.66
2022-12-06T07:41:40.932Z,4.07
2022-12-06T07:44:28.673Z,3.88
2022-12-06T07:46:56.048Z,4.79
2022-12-06T07:49:23.062Z,4.96
2022-12-06T07:51:49.544Z,4.28
2022-12-06T07:54:16.784Z,4.51
2022-12-06T07:56:44.367Z,4.57
2022-12-06T07:59:10.989Z,4.09
2022-12-06T08:01:37.631Z,4.68
2022-12-06T08:04:05.429Z,4.40
2022-12-06T08:06:33.412Z,3.93
2022-12-06T08:09:00.246Z,3.85
2022-12-06T08:11:26.994Z,4.67
2022-12-06T08:13:53.380Z,4.42
2022-12-06T08:16:19.854Z,4.23
2022-12-06T08:18:46.366Z,4.56
2022-12-06T08:21:13.296Z,4.54
2022-12-06T08:23:39.775Z,4.00
2022-12-06T08:26:12.376Z,3.74
2022-12-06T08:28:39.427Z,4.06
2022-12-06T08:31:07.985Z,4.18
2022-12-06T08:33:35.113Z,4.84
2022-12-06T08:36:01.740Z,4.74
2022-12-06T08:38:28.694Z,4.06
2022-12-06T08:40:55.148Z,4.67
2022-12-06T08:43:21.554Z,4.27
2022-12-06T08:45:52.335Z,3.95
2022-12-06T08:48:18.959Z,4.45
2022-12-06T08:50:45.430Z,4.30
2022-12-06T08:53:11.826Z,4.13
2022-12-06T08:55:38.653Z,4.53
2022-12-06T08:58:05.057Z,4.43
2022-12-06T09:00:31.570Z,5.25
2022-12-06T09:02:58.078Z,5.03
2022-12-06T09:05:24.515Z,4.25
2022-12-06T09:07:51.002Z,4.86
2022-12-06T09:10:17.547Z,5.29
2022-12-06T09:12:43.954Z,4.69
2022-12-06T09:15:10.891Z,5.07
2022-12-06T09:17:37.331Z,5.12
2022-12-06T09:20:06.391Z,5.61
2022-12-06T09:22:33.198Z,5.16
2022-12-06T09:27:30.477Z,5.57
2022-12-06T09:29:56.884Z,5.26
2022-12-06T09:32:23.344Z,5.02
2022-12-06T09:34:49.749Z,4.87
2022-12-06T09:37:16.197Z,5.42
2022-12-06T09:40:11.709Z,5.17
2022-12-06T09:42:50.697Z,4.97
2022-12-06T09:45:40.844Z,5.00
2022-12-06T09:48:50.566Z,5.62
2022-12-06T09:51:19.665Z,5.63
2022-12-06T09:54:17.210Z,5.29
2022-12-06T09:56:52.077Z,5.51
2022-12-06T09:59:18.457Z,5.29
2022-12-06T10:02:25.088Z,5.38
2022-12-06T10:05:10.040Z,4.95
2022-12-06T10:07:50.625Z,5.85
2022-12-06T10:10:37.966Z,5.91
2022-12-06T10:13:12.849Z,5.98
2022-12-06T10:15:57.781Z,5.28
2022-12-06T10:18:24.232Z,5.70
2022-12-06T10:21:16.349Z,6.06
2022-12-06T10:24:20.583Z,5.85
2022-12-06T10:26:53.052Z,5.78
2022-12-06T10:29:27.369Z,5.59
2022-12-06T10:32:04.226Z,5.55
2022-12-06T10:34:51.809Z,5.69
2022-12-06T10:37:30.135Z,5.30
2022-12-06T10:40:22.363Z,5.36
2022-12-06T10:43:13.405Z,6.05
2022-12-06T10:46:30.880Z,5.95
2022-12-06T10:49:11.351Z,6.37
2022-12-06T10:51:50.614Z,6.11
2022-12-06T10:54:36.205Z,5.27
2022-12-06T10:57:08.066Z,5.79
2022-12-06T10:59:42.445Z,6.14
2022-12-06T11:02:27.702Z,6.11
2022-12-06T11:05:01.888Z,6.12
2022-12-06T11:07:37.925Z,6.57
2022-12-06T11:10:15.965Z,5.94
2022-12-06T11:12:43.430Z,5.73
2022-12-06T11:15:35.104Z,6.34
2022-12-06T11:18:18.956Z,5.96
2022-12-06T11:20:58.671Z,6.19
2022-12-06T11:23:48.327Z,6.36
2022-12-06T11:26:30.844Z,6.55
2022-12-06T11:29:09.968Z,6.50
2022-12-06T11:31:57.531Z,5.91
2022-12-06T11:34:33.443Z,6.08
2022-12-06T11:37:03.044Z,5.52
2022-12-06T11:39:31.196Z,6.16
2022-12-06T11:42:02.262Z,5.46
2022-12-06T11:44:38.464Z,6.08
2022-12-06T11:47:06.468Z,5.72
2022-12-06T11:49:40.005Z,6.09
2022-12-06T11:52:13.062Z,6.14
2022-12-06T11:55:04.307Z,6.49
2022-12-06T11:57:38.430Z,6.31
2022-12-06T12:00:26.148Z,5.84
2022-12-06T12:02:55.717Z,6.26
2022-12-06T12:05:22.659Z,6.21
2022-12-06T12:08:01.810Z,5.97
2022-12-06T12:10:31.639Z,6.36
2022-12-06T12:13:34.984Z,6.81
2022-12-06T12:16:13.863Z,5.42
2022-12-06T12:18:50.529Z,5.69
2022-12-06T12:21:27.931Z,5.87
2022-12-06T12:23:54.364Z,6.58
2022-12-06T12:26:22.177Z,6.42
2022-12-06T12:29:20.696Z,5.67
2022-12-06T12:31:51.924Z,5.86
2022-12-06T12:34:21.816Z,5.51
2022-12-06T12:37:03.883Z,6.28
2022-12-06T12:39:40.938Z,6.40
2022-12-06T12:42:26.142Z,6.70
2022-12-06T12:44:58.632Z,6.40
2022-12-06T12:47:25.817Z,5.65
2022-12-06T12:50:01.159Z,6.28
2022-12-06T12:52:39.389Z,6.35
2022-12-06T12:55:15.564Z,6.20
2022-12-06T12:57:45.200Z,6.74
2022-12-06T13:00:24.423Z,6.55
2022-12-06T13:02:55.426Z,6.08
2022-12-06T13:05:34.972Z,6.50
2022-12-06T13:08:21.326Z,5.78
2022-12-06T13:10:55.655Z,6.52
2022-12-06T13:13:37.235Z,6.06
2022-12-06T13:16:11.804Z,6.26
2022-12-06T13:18:46.269Z,6.44
2022-12-06T13:21:43.617Z,5.81
2022-12-06T13:24:09.968Z,6.36
2022-12-06T13:26:39.094Z,6.46
2022-12-06T13:29:22.719Z,6.64
2022-12-06T13:31:52.309Z,6.23
2022-12-06T13:34:39.981Z,6.56
2022-12-06T13:37:29.763Z,6.19
2022-12-06T13:39:57.123Z,6.55
2022-12-06T13:42:45.462Z,6.49
2022-12-06T13:45:40.352Z,6.94
2022-12-06T13:48:25.583Z,6.77
2022-12-06T13:50:55.032Z,6.76
2022-12-06T13:53:24.575Z,5.92
2022-12-06T13:56:28.013Z,6.68
2022-12-06T13:58:57.046Z,6.15
2022-12-06T14:01:39.928Z,6.89
2022-12-06T14:06:53.856Z,6.64
2022-12-06T14:09:21.281Z,6.07
2022-12-06T14:11:47.754Z,6.45
2022-12-06T14:14:17.184Z,6.25
2022-12-06T14:16:49.802Z,6.64
2022-12-06T14:19:18.886Z,6.05
2022-12-06T14:21:59.049Z,6.48
2022-12-06T14:24:27.137Z,5.88
2022-12-06T14:26:53.527Z,5.91
2022-12-06T14:29:24.744Z,5.82
2022-12-06T14:31:52.019Z,6.76
2022-12-06T14:34:33.137Z,6.38
2022-12-06T14:37:01.494Z,6.31
2022-12-06T14:39:32.379Z,5.44
2022-12-06T14:42:32.478Z,5.67
2022-12-06T14:45:02.711Z,5.60
2022-12-06T14:47:30.253Z,5.59
2022-12-06T14:50:19.326Z,5.94
2022-12-06T14:53:06.378Z,6.03
2022-12-06T14:55:49.534Z,5.93
2022-12-06T14:58:19.982Z,6.01
2022-12-06T15:00:53.668Z,5.84
2022-12-06T15:03:25.493Z,5.65
2022-12-06T15:06:12.906Z,5.69
2022-12-06T15:08:51.824Z,5.50
2022-12-06T15:11:38.533Z,5.80
2022-12-06T15:14:24.099Z,5.86
2022-12-06T15:17:04.578Z,6.01
2022-12-06T15:19:34.053Z,5.65
2022-12-06T15:22:01.005Z,5.50
2022-12-06T15:24:28.599Z,5.57
2022-12-06T15:26:55.192Z,5.34
2022-12-06T15:29:22.101Z,6.02
2022-12-06T15:31:53.901Z,5.39
2022-12-06T15:34:32.122Z,5.54
2022-12-06T15:37:36.482Z,5.95
2022-12-06T15:39:46.720Z,5.89
2022-12-06T15:42:21.774Z,6.38
2022-12-06T15:44:50.167Z,6.02
2022-12-06T15:47:20.041Z,5.45
2022-12-06T15:49:46.917Z,5.37
2022-12-06T15:52:18.631Z,6.07
2022-12-06T15:54:45.305Z,6.22
2022-12-06T15:57:11.793Z,6.45
2022-12-06T15:59:38.200Z,6.30
2022-12-06T16:02:15.463Z,6.33
2022-12-06T16:04:43.074Z,6.35
2022-12-06T16:07:10.525Z,6.09
2022-12-06T16:09:37.021Z,6.45
2022-12-06T16:12:03.979Z,5.88
2022-12-06T16:14:30.375Z,5.54
2022-12-06T16:16:56.761Z,5.84
2022-12-06T16:19:23.200Z,5.84
2022-12-06T16:21:55.557Z,5.79
2022-12-06T16:24:22.672Z,5.79
2022-12-06T16:26:49.378Z,5.09
2022-12-06T16:29:17.877Z,5.56
2022-12-06T16:31:45.183Z,5.58
2022-12-06T16:34:12.096Z,6.11
2022-12-06T16:36:58.683Z,6.25
2022-12-06T16:39:26.006Z,5.80
2022-12-06T16:41:52.509Z,5.59
2022-12-06T16:44:18.986Z,5.89
2022-12-06T16:46:46.448Z,5.99
2022-12-06T16:52:11.677Z,5.90
2022-12-06T16:54:41.057Z,5.43
2022-12-06T16:57:08.128Z,5.81
2022-12-06T16:59:35.156Z,6.16
2022-12-06T17:02:01.734Z,5.07
2022-12-06T17:04:30.612Z,5.55
2022-12-06T17:06:57.072Z,5.90
2022-12-06T17:09:23.510Z,5.73
2022-12-06T17:12:06.770Z,5.89
2022-12-06T17:14:33.747Z,5.56
2022-12-06T17:17:03.859Z,6.30
2022-12-06T17:19:32.135Z,6.31
2022-12-06T17:21:59.446Z,5.46
2022-12-06T17:24:26.868Z,5.80
2022-12-06T17:26:56.586Z,5.58
2022-12-06T17:29:23.894Z,5.59
2022-12-06T17:31:51.356Z,6.23
2022-12-06T17:34:19.806Z,5.90
2022-12-06T17:36:47.860Z,5.41
2022-12-06T17:39:17.065Z,5.64
2022-12-06T17:42:02.611Z,5.52
2022-12-06T17:44:29.244Z,5.34
2022-12-06T17:46:55.975Z,5.29
2022-12-06T17:49:24.840Z,5.38
2022-12-06T17:51:51.955Z,5.17
2022-12-06T17:54:19.421Z,5.50
2022-12-06T17:56:48.351Z,6.02
2022-12-06T17:59:19.107Z,6.02
2022-12-06T18:04:32.418Z,6.34
2022-12-06T18:06:58.847Z,6.19
2022-12-06T18:09:25.578Z,6.53
2022-12-06T18:11:52.108Z,5.60
2022-12-06T18:14:18.943Z,5.57
2022-12-06T18:16:46.533Z,6.07
2022-12-06T18:19:18.234Z,6.58
2022-12-06T18:21:45.423Z,6.63
2022-12-06T18:24:23.259Z,6.06
2022-12-06T18:26:52.121Z,5.67
2022-12-06T18:29:20.966Z,5.95
2022-12-06T18:31:47.889Z,5.66
2022-12-06T18:34:15.288Z,5.80
2022-12-06T18:36:41.949Z,5.86
2022-12-06T18:39:15.457Z,6.45
2022-12-06T18:41:45.333Z,6.42
2022-12-06T18:44:12.829Z,6.61
2022-12-06T18:46:41.933Z,6.51
2022-12-06T18:49:10.075Z,6.33
2022-12-06T18:51:38.587Z,6.17
2022-12-06T18:54:06.058Z,6.53
2022-12-06T18:56:33.675Z,6.29
2022-12-06T18:59:02.853Z,6.23
2022-12-06T19:01:31.940Z,6.46
2022-12-06T19:04:00.710Z,5.90
2022-12-06T19:06:29.930Z,6.33
2022-12-06T19:08:59.632Z,6.50
2022-12-06T19:11:26.118Z,6.14
2022-12-06T19:13:57.884Z,6.46
2022-12-06T19:16:26.777Z,5.68
2022-12-06T19:18:55.402Z,6.14
2022-12-06T19:21:22.954Z,5.89
2022-12-06T19:23:51.987Z,6.36
2022-12-06T19:26:18.869Z,5.78
2022-12-06T19:28:45.306Z,5.96
2022-12-06T19:31:13.742Z,6.08
2022-12-06T19:33:43.202Z,6.15
2022-12-06T19:36:15.856Z,5.78
2022-12-06T19:38:43.325Z,5.65
2022-12-06T19:41:13.131Z,5.84
2022-12-06T19:43:58.489Z,6.44
2022-12-06T19:46:27.120Z,5.24
2022-12-06T19:48:57.265Z,5.75
2022-12-06T19:51:26.687Z,5.38
2022-12-06T19:53:53.091Z,5.77
2022-12-06T19:56:20.200Z,5.31
2022-12-06T19:58:47.443Z,5.86
2022-12-06T20:01:18.640Z,5.71
2022-12-06T20:03:47.092Z,5.24
2022-12-06T20:06:18.305Z,5.87
2022-12-06T20:08:45.934Z,5.62
2022-12-06T20:11:33.437Z,6.30
2022-12-06T20:14:01.630Z,6.23
2022-12-06T20:16:28.077Z,6.21
2022-12-06T20:18:54.613Z,6.14
2022-12-06T20:21:21.096Z,6.21
2022-12-06T20:23:47.678Z,6.32
2022-12-06T20:26:15.170Z,6.40
2022-12-06T20:28:46.572Z,6.30
2022-12-06T20:31:18.720Z,6.23
2022-12-06T20:33:45.761Z,6.27
2022-12-06T20:36:17.786Z,6.25
2022-12-06T20:38:44.415Z,6.26
2022-12-06T20:41:16.574Z,6.21
2022-12-06T20:43:44.267Z,6.14
2022-12-06T20:46:15.450Z,6.00
2022-12-06T20:48:43.208Z,6.18
2022-12-06T20:51:15.640Z,6.02
2022-12-06T20:53:42.847Z,6.11
2022-12-06T20:56:11.598Z,6.09
2022-12-06T20:58:38.728Z,5.85
2022-12-06T21:01:05.694Z,5.77
2022-12-06T21:03:32.761Z,5.79
2022-12-06T21:06:01.277Z,5.82
2022-12-06T21:08:28.411Z,6.00
2022-12-06T21:11:21.542Z,5.53
2022-12-06T21:13:43.026Z,6.05
2022-12-06T21:16:14.249Z,5.87
2022-12-06T21:18:41.801Z,6.10
2022-12-06T21:21:09.233Z,5.98
2022-12-06T21:23:35.869Z,5.98
2022-12-06T21:26:03.273Z,6.07
2022-12-06T21:28:29.789Z,5.53
2022-12-06T21:30:57.161Z,5.54
2022-12-06T21:33:25.350Z,5.56
2022-12-06T21:35:52.970Z,5.87
2022-12-06T21:38:21.259Z,5.79
2022-12-06T21:40:52.976Z,5.85
2022-12-06T21:43:20.982Z,5.99
2022-12-06T21:45:47.558Z,6.05
2022-12-06T21:48:14.055Z,6.01
2022-12-06T21:50:40.530Z,6.06
2022-12-06T21:53:06.966Z,6.06
2022-12-06T21:55:33.462Z,6.07
2022-12-06T21:57:59.881Z,5.91
2022-12-06T22:00:26.390Z,5.93
2022-12-06T22:02:53.728Z,5.76
2022-12-06T22:05:20.755Z,5.76
2022-12-06T22:07:47.372Z,5.66
2022-12-06T22:10:13.882Z,5.72
2022-12-06T22:12:40.359Z,5.18
2022-12-06T22:15:07.233Z,5.25
2022-12-06T22:17:33.659Z,5.54
2022-12-06T22:20:00.501Z,5.54
2022-12-06T22:22:27.319Z,5.65
2022-12-06T22:24:54.016Z,5.61
2022-12-06T22:27:20.505Z,5.55
2022-12-06T22:29:47.564Z,5.52
2022-12-06T22:32:14.023Z,5.31
2022-12-06T22:34:40.435Z,5.39
2022-12-06T22:37:06.969Z,5.63
2022-12-06T22:39:33.381Z,5.70
2022-12-06T22:41:59.802Z,5.67
2022-12-06T22:44:26.342Z,5.76
2022-12-06T22:46:58.884Z,5.70
2022-12-06T22:49:25.391Z,5.62
2022-12-06T22:51:51.852Z,5.53
2022-12-06T22:54:18.254Z,5.64
2022-12-06T22:56:48.541Z,5.76
2022-12-06T22:59:17.040Z,5.78
2022-12-06T23:01:43.735Z,5.71
2022-12-06T23:04:11.311Z,5.80
2022-12-06T23:06:38.336Z,5.81
2022-12-06T23:09:07.280Z,5.80
2022-12-06T23:11:35.667Z,5.81
2022-12-06T23:14:05.549Z,5.82
2022-12-06T23:16:32.679Z,5.88
2022-12-06T23:19:03.500Z,5.83
2022-12-06T23:21:32.872Z,5.76
2022-12-06T23:24:02.060Z,5.93
2022-12-06T23:26:35.028Z,5.85
2022-12-06T23:29:02.480Z,5.97
2022-12-06T23:31:31.610Z,5.91
2022-12-06T23:34:01.134Z,5.97
2022-12-06T23:36:30.927Z,5.87
2022-12-06T23:38:57.655Z,5.96
2022-12-06T23:41:26.571Z,5.96
2022-12-06T23:43:53.996Z,5.78
2022-12-06T23:46:24.102Z,5.74
2022-12-06T23:48:51.409Z,5.83
2022-12-06T23:51:20.129Z,5.58
2022-12-06T23:53:52.078Z,5.68
2022-12-06T23:56:20.724Z,5.68
2022-12-06T23:58:50.252Z,5.78
